Forside
METAR-TAF:

METAR-TAF

Lufthavne :

Dodge Center Airport (Dodge Center Municipal)

Dodge Center, Minnesota, USA

Breddekreds: 44-01-05N, længdekreds: 092-49-53W, højde: 398 m

Aktuelle vejr

Denne rapport blev lavet for 10 minutter siden, kl. 22:15 UTC
Vind 3 kt fra vestnordvest
Temperatur 8°C
Fugtighed 76%
Tryk 1022 hPa
Sigt: 16.1 km
Spredte skyer i en højde af 1300 ft
Spredte skyer i en højde af 1900 ft
Overskyet i en højde af 3000 ft
regn

METAR: KTOB 052215Z AUTO 30003KT 10SM RA SCT013 SCT019 OVC030 08/04 A3017 RMK AO2 P0003

Tid: 17:25 (22:25 UTC)


TAF: fraværende

Vejrobservationer og prognoser fra mere end 4000 lufthavne (METAR og TAF).

De gule og røde prikker repræsenterer de meteorologiske stationer.

Flyt musen over at se navnet på stationen.

Så klik over at se vejr observationer og prognoser.

At skifte det kort: Klik på de grønne knapper med et sort kors for at zoome ind; på den grønne knap med en bindestreg for at zoome ud; eller på de grønne pile for tilstødende kort.


METAR-TAF: